createdAt,value
2022-11-05T06:01:06.560Z,91.07
2022-11-05T06:03:36.018Z,91.07
2022-11-05T06:06:08.941Z,91.00
2022-11-05T06:08:38.115Z,90.99
2022-11-05T06:11:08.446Z,90.98
2022-11-05T06:13:38.339Z,90.97
2022-11-05T06:16:09.761Z,90.94
2022-11-05T06:18:38.907Z,90.90
2022-11-05T06:21:11.158Z,90.84
2022-11-05T06:23:42.080Z,90.87
2022-11-05T06:26:15.468Z,90.90
2022-11-05T06:28:45.219Z,90.82
2022-11-05T06:31:15.580Z,90.80
2022-11-05T06:33:44.418Z,90.76
2022-11-05T06:36:17.019Z,90.82
2022-11-05T06:38:46.486Z,90.83
2022-11-05T06:41:15.678Z,90.89
2022-11-05T06:43:44.902Z,90.90
2022-11-05T06:46:13.798Z,90.90
2022-11-05T06:48:42.678Z,90.98
2022-11-05T06:51:11.478Z,91.00
2022-11-05T06:53:40.597Z,91.02
2022-11-05T06:56:10.179Z,91.00
2022-11-05T06:58:38.860Z,90.99
2022-11-05T07:01:11.043Z,90.99
2022-11-05T07:03:40.119Z,90.99
2022-11-05T07:06:08.919Z,90.98
2022-11-05T07:08:38.946Z,90.89
2022-11-05T07:11:07.819Z,90.89
2022-11-05T07:13:36.619Z,90.92
2022-11-05T07:16:06.340Z,90.98
2022-11-05T07:18:35.320Z,91.04
2022-11-05T07:21:04.720Z,91.11
2022-11-05T07:23:33.620Z,91.12
2022-11-05T07:26:02.630Z,91.06
2022-11-05T07:28:31.299Z,91.04
2022-11-05T07:31:00.262Z,90.93
2022-11-05T07:33:35.267Z,90.82
2022-11-05T07:36:06.160Z,90.73
2022-11-05T07:38:35.164Z,90.75
2022-11-05T07:41:04.142Z,90.75
2022-11-05T07:43:33.142Z,90.71
2022-11-05T07:46:02.031Z,90.69
2022-11-05T07:48:30.912Z,90.54
2022-11-05T07:51:00.119Z,90.29
2022-11-05T07:53:28.860Z,90.20
2022-11-05T07:55:59.351Z,90.20
2022-11-05T07:58:28.341Z,90.25
2022-11-05T08:00:58.594Z,90.16
2022-11-05T08:03:27.505Z,90.04
2022-11-05T08:05:56.547Z,89.92
2022-11-05T08:08:26.361Z,89.93
2022-11-05T08:10:55.141Z,89.91
2022-11-05T08:13:24.036Z,89.80
2022-11-05T08:15:52.920Z,89.75
2022-11-05T08:18:21.668Z,89.73
2022-11-05T08:20:50.603Z,89.65
2022-11-05T08:23:19.509Z,89.59
2022-11-05T08:25:48.290Z,89.33
2022-11-05T08:28:17.379Z,89.24
2022-11-05T08:30:54.783Z,89.07
2022-11-05T08:33:25.523Z,88.97
2022-11-05T08:35:54.401Z,88.91
2022-11-05T08:38:23.282Z,88.82
2022-11-05T08:40:59.417Z,88.44
2022-11-05T08:43:28.761Z,88.23
2022-11-05T08:45:57.867Z,87.90
2022-11-05T08:48:26.756Z,87.86
2022-11-05T08:50:55.721Z,87.55
2022-11-05T08:53:24.316Z,87.43
2022-11-05T08:55:53.219Z,87.45
2022-11-05T08:58:22.323Z,87.14
2022-11-05T09:00:51.327Z,87.16
2022-11-05T09:03:21.667Z,87.12
2022-11-05T09:05:50.621Z,86.83
2022-11-05T09:08:20.281Z,86.49
2022-11-05T09:10:50.303Z,86.45
2022-11-05T09:13:20.297Z,86.07
2022-11-05T09:15:50.998Z,86.05
2022-11-05T09:18:20.826Z,86.30
2022-11-05T09:20:49.808Z,86.10
2022-11-05T09:23:18.887Z,86.12
2022-11-05T09:25:48.382Z,85.60
2022-11-05T09:28:20.632Z,85.66
2022-11-05T09:30:53.867Z,85.61
2022-11-05T09:33:25.628Z,85.45
2022-11-05T09:35:55.021Z,85.32
2022-11-05T09:38:23.819Z,85.02
2022-11-05T09:41:31.616Z,85.00
2022-11-05T09:44:15.167Z,84.73
2022-11-05T09:47:09.758Z,84.57
2022-11-05T09:49:50.438Z,84.50
2022-11-05T09:52:33.838Z,84.54
2022-11-05T09:55:07.958Z,84.30
2022-11-05T09:57:46.881Z,84.05
2022-11-05T10:00:17.299Z,84.15
2022-11-05T10:03:00.641Z,84.35
2022-11-05T10:05:32.910Z,84.46
2022-11-05T10:08:32.058Z,84.56
2022-11-05T10:11:13.399Z,84.42
2022-11-05T10:13:55.499Z,84.03
2022-11-05T10:16:31.396Z,83.25
2022-11-05T10:19:25.459Z,83.69
2022-11-05T10:22:25.259Z,83.96
2022-11-05T10:24:55.562Z,84.00
2022-11-05T10:27:31.400Z,83.85
2022-11-05T10:30:01.099Z,83.81
2022-11-05T10:32:39.959Z,83.71
2022-11-05T10:35:18.997Z,82.79
2022-11-05T10:37:49.379Z,83.21
2022-11-05T10:40:50.070Z,83.47
2022-11-05T10:43:41.360Z,83.13
2022-11-05T10:46:52.231Z,83.09
2022-11-05T10:49:41.519Z,82.31
2022-11-05T10:52:40.742Z,82.33
2022-11-05T10:55:26.911Z,81.81
2022-11-05T10:58:20.299Z,81.57
2022-11-05T11:00:52.426Z,81.56
2022-11-05T11:03:42.582Z,82.00
2022-11-05T11:06:27.602Z,81.73
2022-11-05T11:09:00.583Z,81.73
2022-11-05T11:11:41.879Z,81.80
2022-11-05T11:14:10.629Z,81.34
2022-11-05T11:16:43.060Z,81.53
2022-11-05T11:19:26.974Z,81.40
2022-11-05T11:22:05.420Z,81.22
2022-11-05T11:24:51.720Z,81.49
2022-11-05T11:27:29.054Z,80.53
2022-11-05T11:30:08.020Z,80.24
2022-11-05T11:32:41.003Z,80.02
2022-11-05T11:35:26.000Z,79.61
2022-11-05T11:37:58.340Z,78.16
2022-11-05T11:40:35.600Z,78.16
2022-11-05T11:43:21.543Z,77.50
2022-11-05T11:46:09.883Z,77.23
2022-11-05T11:48:46.139Z,77.46
2022-11-05T11:51:35.730Z,77.53
2022-11-05T11:54:05.719Z,77.45
2022-11-05T11:56:48.100Z,77.33
2022-11-05T12:00:06.471Z,77.82
2022-11-05T12:02:40.546Z,77.16
2022-11-05T12:05:27.422Z,77.59
2022-11-05T12:08:17.200Z,77.77
2022-11-05T12:11:06.360Z,77.62
2022-11-05T12:13:56.759Z,76.85
2022-11-05T12:16:45.456Z,77.30
2022-11-05T12:19:51.682Z,77.20
2022-11-05T12:22:59.083Z,77.04
2022-11-05T12:25:49.679Z,76.40
2022-11-05T12:28:57.657Z,77.07
2022-11-05T12:31:38.386Z,76.61
2022-11-05T12:34:10.559Z,75.43
2022-11-05T12:37:24.455Z,75.83
2022-11-05T12:40:46.260Z,75.29
2022-11-05T12:44:10.479Z,75.41
2022-11-05T12:46:49.000Z,75.23
2022-11-05T12:49:32.743Z,75.51
2022-11-05T12:52:32.761Z,75.28
2022-11-05T12:55:18.568Z,75.02
2022-11-05T12:57:53.268Z,75.46
2022-11-05T13:00:29.867Z,74.20
2022-11-05T13:03:50.359Z,74.72
2022-11-05T13:06:35.508Z,75.11
2022-11-05T13:09:26.639Z,74.89
2022-11-05T13:12:07.000Z,74.30
2022-11-05T13:15:00.363Z,74.84
2022-11-05T13:17:44.340Z,75.27
2022-11-05T13:20:24.923Z,75.07
2022-11-05T13:23:01.908Z,74.69
2022-11-05T13:25:41.390Z,74.51
2022-11-05T13:28:31.900Z,74.42
2022-11-05T13:31:06.280Z,74.92
2022-11-05T13:33:44.679Z,75.23
2022-11-05T13:37:06.301Z,74.87
2022-11-05T13:39:51.421Z,75.14
2022-11-05T13:43:00.159Z,74.77
2022-11-05T13:46:05.870Z,74.39
2022-11-05T13:49:09.518Z,74.08
2022-11-05T13:52:41.899Z,74.21
2022-11-05T13:55:36.819Z,74.01
2022-11-05T13:58:47.067Z,74.31
2022-11-05T14:02:00.936Z,74.53
2022-11-05T14:05:00.941Z,74.16
2022-11-05T14:07:49.822Z,74.25
2022-11-05T14:10:45.044Z,74.09
2022-11-05T14:13:40.254Z,73.85
2022-11-05T14:16:22.679Z,74.23
2022-11-05T14:19:20.420Z,74.13
2022-11-05T14:21:54.360Z,74.26
2022-11-05T14:24:50.832Z,74.49
2022-11-05T14:27:33.899Z,74.81
2022-11-05T14:30:45.293Z,74.62
2022-11-05T14:33:29.951Z,74.81
2022-11-05T14:36:30.940Z,75.28
2022-11-05T14:39:19.060Z,75.34
2022-11-05T14:42:05.063Z,75.73
2022-11-05T14:44:36.001Z,75.91
2022-11-05T14:47:20.208Z,75.97
2022-11-05T14:50:11.918Z,76.26
2022-11-05T14:52:52.239Z,76.32
2022-11-05T14:55:34.861Z,76.46
2022-11-05T14:58:26.900Z,76.75
2022-11-05T15:00:57.821Z,76.95
2022-11-05T15:03:41.089Z,77.14
2022-11-05T15:06:27.705Z,77.29
2022-11-05T15:09:47.959Z,77.67
2022-11-05T15:12:32.242Z,77.96
2022-11-05T15:15:21.485Z,78.04
2022-11-05T15:18:15.879Z,78.26
2022-11-05T15:20:53.581Z,78.61
2022-11-05T15:23:27.180Z,78.82
2022-11-05T15:26:24.441Z,79.03
2022-11-05T15:28:55.612Z,79.24
2022-11-05T15:31:42.160Z,79.42
2022-11-05T15:34:24.300Z,79.65
2022-11-05T15:37:20.220Z,79.85
2022-11-05T15:39:52.481Z,80.00
2022-11-05T15:42:28.458Z,80.05
2022-11-05T15:44:59.960Z,80.28
2022-11-05T15:47:36.724Z,80.46
2022-11-05T15:50:15.112Z,80.70
2022-11-05T15:52:56.702Z,80.92
2022-11-05T15:55:30.380Z,81.21
2022-11-05T15:58:07.421Z,81.51
2022-11-05T16:00:37.901Z,81.59
2022-11-05T16:03:09.149Z,81.60
2022-11-05T16:05:45.422Z,81.78
2022-11-05T16:08:28.040Z,81.92
2022-11-05T16:11:01.581Z,82.11
2022-11-05T16:13:36.240Z,82.30
2022-11-05T16:16:26.432Z,82.47
2022-11-05T16:18:55.319Z,82.61
2022-11-05T16:21:24.222Z,82.77
2022-11-05T16:23:57.440Z,82.93
2022-11-05T16:29:38.500Z,83.05
2022-11-05T16:32:36.901Z,83.10
2022-11-05T16:35:07.919Z,83.11
2022-11-05T16:37:49.131Z,83.23
2022-11-05T16:40:25.753Z,83.40
2022-11-05T16:42:55.587Z,83.60
2022-11-05T16:45:25.939Z,83.78
2022-11-05T16:47:55.128Z,83.80
2022-11-05T16:50:30.879Z,83.88
2022-11-05T16:52:59.660Z,84.00
2022-11-05T16:55:29.241Z,84.08
2022-11-05T16:57:58.652Z,84.21
2022-11-05T17:00:27.460Z,84.36
2022-11-05T17:02:56.947Z,84.39
2022-11-05T17:05:31.547Z,84.52
2022-11-05T17:08:01.532Z,84.60
2022-11-05T17:10:32.329Z,84.66
2022-11-05T17:13:01.600Z,84.68
2022-11-05T17:15:37.289Z,84.70
2022-11-05T17:18:06.899Z,84.70
2022-11-05T17:20:48.065Z,84.80
2022-11-05T17:23:20.840Z,85.03
2022-11-05T17:25:55.859Z,85.26
2022-11-05T17:28:24.980Z,85.25
2022-11-05T17:30:53.790Z,85.29
2022-11-05T17:33:23.805Z,85.54
2022-11-05T17:35:54.557Z,85.64
2022-11-05T17:38:26.983Z,85.72
2022-11-05T17:40:56.022Z,85.85
2022-11-05T17:43:24.887Z,85.99
2022-11-05T17:46:01.528Z,86.14
2022-11-05T17:48:33.553Z,86.34
2022-11-05T17:51:02.742Z,86.33
2022-11-05T17:53:31.820Z,86.28
2022-11-05T17:56:00.922Z,86.18
2022-11-05T17:58:29.819Z,86.17
2022-11-05T18:00:58.508Z,86.35
2022-11-05T18:03:27.585Z,86.42
2022-11-05T18:06:07.341Z,86.51
2022-11-05T18:08:36.128Z,86.53
2022-11-05T18:11:05.534Z,86.49
2022-11-05T18:13:34.729Z,86.35
2022-11-05T18:16:03.498Z,86.29
2022-11-05T18:18:32.524Z,86.20
2022-11-05T18:21:01.520Z,86.20
2022-11-05T18:23:30.502Z,86.26
2022-11-05T18:25:59.712Z,86.38
2022-11-05T18:28:32.643Z,86.40
2022-11-05T18:31:01.472Z,86.38
2022-11-05T18:33:31.092Z,86.29
2022-11-05T18:35:59.751Z,86.35
2022-11-05T18:38:29.683Z,86.44
2022-11-05T18:40:59.701Z,86.50
2022-11-05T18:43:30.420Z,86.61
2022-11-05T18:46:00.800Z,86.69
2022-11-05T18:48:31.669Z,86.79
2022-11-05T18:51:07.641Z,86.84
2022-11-05T18:53:40.009Z,86.83
2022-11-05T18:56:17.059Z,86.79
2022-11-05T18:58:48.189Z,86.87
2022-11-05T19:01:24.293Z,86.82
2022-11-05T19:03:55.180Z,87.03
2022-11-05T19:06:28.280Z,87.17
2022-11-05T19:08:59.580Z,87.28
2022-11-05T19:11:29.700Z,87.30
2022-11-05T19:14:00.724Z,87.22
2022-11-05T19:18:33.321Z,87.56
2022-11-05T19:21:10.037Z,87.73
2022-11-05T19:23:39.779Z,87.96
2022-11-05T19:26:15.080Z,88.14
2022-11-05T19:28:44.999Z,88.20
2022-11-05T19:31:18.714Z,88.21
2022-11-05T19:33:50.790Z,88.22
2022-11-05T19:36:22.325Z,88.25
2022-11-05T19:39:04.841Z,88.34
2022-11-05T19:41:33.821Z,88.50
2022-11-05T19:44:02.920Z,88.50
2022-11-05T19:46:32.621Z,88.56
2022-11-05T19:49:02.156Z,88.64
2022-11-05T19:51:33.039Z,88.65
2022-11-05T19:54:03.719Z,88.53
2022-11-05T19:56:36.087Z,88.54
2022-11-05T19:59:07.403Z,88.61
2022-11-05T20:01:36.677Z,88.75
2022-11-05T20:04:06.492Z,88.80
2022-11-05T20:06:39.140Z,88.86
2022-11-05T20:09:22.555Z,88.98
2022-11-05T20:11:56.921Z,89.12
2022-11-05T20:14:27.285Z,89.18
2022-11-05T20:16:56.460Z,89.20
2022-11-05T20:19:25.482Z,89.19
2022-11-05T20:21:54.364Z,89.36
2022-11-05T20:24:25.167Z,89.50
2022-11-05T20:26:56.519Z,89.65
2022-11-05T20:29:32.194Z,89.73
2022-11-05T20:32:05.360Z,89.69
2022-11-05T20:34:35.381Z,89.71
2022-11-05T20:37:04.620Z,89.82
2022-11-05T20:39:33.920Z,89.82
2022-11-05T20:42:02.820Z,89.90
2022-11-05T20:44:31.920Z,89.99
2022-11-05T20:47:01.136Z,90.07
2022-11-05T20:49:29.899Z,90.11
2022-11-05T20:51:58.799Z,90.20
2022-11-05T20:54:28.159Z,90.16
2022-11-05T20:56:56.956Z,90.18
2022-11-05T20:59:25.767Z,90.14
2022-11-05T21:01:54.782Z,90.10
2022-11-05T21:04:23.900Z,90.10
2022-11-05T21:06:53.739Z,90.08
2022-11-05T21:09:22.683Z,90.08
2022-11-05T21:12:10.399Z,90.14
2022-11-05T21:14:42.712Z,90.37
2022-11-05T21:17:13.300Z,90.48
2022-11-05T21:19:42.108Z,90.50
2022-11-05T21:22:15.899Z,90.48
2022-11-05T21:24:44.689Z,90.42
2022-11-05T21:27:13.589Z,90.45
2022-11-05T21:29:42.499Z,90.50
2022-11-05T21:32:12.183Z,90.60
2022-11-05T21:34:41.079Z,90.56
2022-11-05T21:37:09.960Z,90.50
2022-11-05T21:39:38.860Z,90.49
2022-11-05T21:42:07.719Z,90.41
2022-11-05T21:44:36.720Z,90.35
2022-11-05T21:47:06.042Z,90.40
2022-11-05T21:49:36.041Z,90.43
2022-11-05T21:52:24.300Z,90.55
2022-11-05T21:55:11.628Z,90.53
2022-11-05T21:58:00.380Z,90.60
2022-11-05T22:00:29.949Z,90.69
2022-11-05T22:03:00.414Z,90.68
2022-11-05T22:05:29.314Z,90.60
2022-11-05T22:07:58.292Z,90.65
2022-11-05T22:10:27.201Z,90.78
2022-11-05T22:12:56.499Z,90.79
2022-11-05T22:15:25.385Z,90.78
2022-11-05T22:17:54.080Z,90.79
2022-11-05T22:20:23.299Z,90.85
2022-11-05T22:22:53.183Z,91.01
2022-11-05T22:25:22.500Z,91.11
2022-11-05T22:27:51.281Z,91.21
2022-11-05T22:30:20.264Z,91.30
2022-11-05T22:32:49.251Z,91.40
2022-11-05T22:35:18.120Z,91.49
2022-11-05T22:37:46.940Z,91.50
2022-11-05T22:40:15.940Z,91.50
2022-11-05T22:42:44.940Z,91.48
2022-11-05T22:45:13.820Z,91.42
2022-11-05T22:47:43.039Z,91.40
2022-11-05T22:50:12.019Z,91.41
2022-11-05T22:52:40.800Z,91.37
2022-11-05T22:55:10.478Z,91.29
2022-11-05T22:57:39.200Z,91.16
2022-11-05T23:00:18.129Z,91.10
2022-11-05T23:02:47.929Z,91.09
2022-11-05T23:05:27.727Z,91.10
2022-11-05T23:11:55.091Z,91.09
2022-11-05T23:14:27.171Z,91.04
2022-11-05T23:21:02.069Z,91.15
2022-11-05T23:27:17.854Z,91.40
